createdAt,value
2018-09-23T00:00:00.490Z,0
2018-09-23T00:00:59.954Z,0
2018-09-23T00:01:59.923Z,0
2018-09-23T00:02:59.384Z,0
2018-09-23T00:03:59.640Z,0
2018-09-23T00:04:59.616Z,0
2018-09-23T00:05:59.602Z,0
2018-09-23T00:07:00.122Z,0
2018-09-23T00:07:59.582Z,0
2018-09-23T00:08:59.816Z,0
2018-09-23T00:10:00.119Z,0
2018-09-23T00:11:00.060Z,0
2018-09-23T00:11:59.773Z,0
2018-09-23T00:13:00.295Z,0
2018-09-23T00:13:59.747Z,0
2018-09-23T00:14:59.993Z,0
2018-09-23T00:15:59.706Z,0
2018-09-23T00:16:59.960Z,0
2018-09-23T00:17:59.680Z,0
2018-09-23T00:18:59.662Z,0
2018-09-23T00:19:59.912Z,0
2018-09-23T00:20:59.642Z,0
2018-09-23T00:21:59.620Z,0
2018-09-23T00:22:59.605Z,0
2018-09-23T00:23:59.856Z,0
2018-09-23T00:24:59.842Z,0
2018-09-23T00:25:59.565Z,0
2018-09-23T00:26:59.552Z,0
2018-09-23T00:27:59.523Z,0
2018-09-23T00:28:59.778Z,0
2018-09-23T00:30:00.026Z,0
2018-09-23T00:30:59.223Z,0
2018-09-23T00:31:59.212Z,0
2018-09-23T00:32:59.453Z,0
2018-09-23T00:33:59.428Z,0
2018-09-23T00:34:59.155Z,0
2018-09-23T00:35:59.668Z,0
2018-09-23T00:36:59.385Z,0
2018-09-23T00:37:59.106Z,0
2018-09-23T00:38:59.350Z,0
2018-09-23T00:39:59.070Z,0
2018-09-23T00:40:59.585Z,0
2018-09-23T00:41:59.307Z,0
2018-09-23T00:42:59.293Z,0
2018-09-23T00:43:59.805Z,0
2018-09-23T00:44:59.260Z,0
2018-09-23T00:45:59.244Z,0
2018-09-23T00:46:59.497Z,0
2018-09-23T00:47:59.216Z,0
2018-09-23T00:48:58.941Z,0
2018-09-23T00:49:59.197Z,0
2018-09-23T00:50:59.181Z,0
2018-09-23T00:51:59.670Z,0
2018-09-23T00:52:59.149Z,0
2018-09-23T00:53:59.132Z,0
2018-09-23T00:54:59.110Z,0
2018-09-23T00:55:59.357Z,0
2018-09-23T00:56:58.821Z,0
2018-09-23T00:57:59.647Z,0
2018-09-23T00:58:59.320Z,0
2018-09-23T00:59:59.295Z,0
2018-09-23T01:00:58.746Z,0
2018-09-23T01:01:58.998Z,0
2018-09-23T01:02:59.246Z,0
2018-09-23T01:03:59.229Z,0
2018-09-23T01:04:59.483Z,0
2018-09-23T01:05:58.934Z,0
2018-09-23T01:06:59.178Z,0
2018-09-23T01:07:58.645Z,0
2018-09-23T01:08:58.885Z,0
2018-09-23T01:09:59.140Z,0
2018-09-23T01:10:58.596Z,0
2018-09-23T01:11:58.316Z,0
2018-09-23T01:12:59.354Z,0
2018-09-23T01:13:58.818Z,0
2018-09-23T01:14:58.807Z,0
2018-09-23T01:15:58.793Z,0
2018-09-23T01:16:58.504Z,0
2018-09-23T01:17:58.751Z,0
2018-09-23T01:18:58.207Z,0
2018-09-23T01:19:59.001Z,0
2018-09-23T01:20:58.709Z,0
2018-09-23T01:21:58.690Z,0
2018-09-23T01:22:58.672Z,0
2018-09-23T01:23:58.924Z,0
2018-09-23T01:24:58.912Z,0
2018-09-23T01:25:58.631Z,0
2018-09-23T01:26:59.139Z,0
2018-09-23T01:27:58.594Z,0
2018-09-23T01:28:58.591Z,0
2018-09-23T01:29:59.100Z,0
2018-09-23T01:30:58.279Z,0
2018-09-23T01:31:59.074Z,0
2018-09-23T01:32:58.781Z,0
2018-09-23T01:33:58.779Z,0
2018-09-23T01:34:58.234Z,0
2018-09-23T01:35:58.738Z,0
2018-09-23T01:36:58.723Z,0
2018-09-23T01:37:58.707Z,0
2018-09-23T01:38:58.163Z,0
2018-09-23T01:39:58.416Z,0
2018-09-23T01:40:58.661Z,0
2018-09-23T01:41:58.677Z,0
2018-09-23T01:42:58.637Z,0
2018-09-23T01:43:57.823Z,0
2018-09-23T01:44:58.339Z,0
2018-09-23T01:45:58.583Z,0
2018-09-23T01:46:58.313Z,0
2018-09-23T01:47:58.559Z,0
2018-09-23T01:48:57.753Z,0
2018-09-23T01:49:58.263Z,0
2018-09-23T01:50:57.985Z,0
2018-09-23T01:51:58.233Z,0
2018-09-23T01:52:58.482Z,0
2018-09-23T01:53:57.940Z,0
2018-09-23T01:54:58.188Z,0
2018-09-23T01:55:58.700Z,0
2018-09-23T01:56:58.423Z,0
2018-09-23T01:57:57.885Z,0
2018-09-23T01:58:58.658Z,0
2018-09-23T01:59:58.638Z,0
2018-09-23T02:00:58.117Z,0
2018-09-23T02:01:57.811Z,0
2018-09-23T02:02:58.336Z,0
2018-09-23T02:03:57.797Z,0
2018-09-23T02:04:58.032Z,0
2018-09-23T02:05:57.805Z,0
2018-09-23T02:06:57.471Z,0
2018-09-23T02:07:57.988Z,0
2018-09-23T02:08:57.972Z,0
2018-09-23T02:09:58.220Z,0
2018-09-23T02:10:58.212Z,0
2018-09-23T02:11:57.928Z,0
2018-09-23T02:12:57.968Z,0
2018-09-23T02:13:58.161Z,0
2018-09-23T02:14:58.157Z,0
2018-09-23T02:15:58.402Z,0
2018-09-23T02:16:57.851Z,0
2018-09-23T02:17:57.841Z,0
2018-09-23T02:18:58.089Z,0
2018-09-23T02:19:58.079Z,0
2018-09-23T02:20:58.049Z,0
2018-09-23T02:21:58.067Z,0
2018-09-23T02:22:58.034Z,0
2018-09-23T02:23:57.474Z,0
2018-09-23T02:24:57.727Z,0
2018-09-23T02:25:58.408Z,0
2018-09-23T02:26:57.973Z,0
2018-09-23T02:27:58.213Z,0
2018-09-23T02:28:57.680Z,0
2018-09-23T02:29:57.656Z,0
2018-09-23T02:30:57.906Z,0
2018-09-23T02:31:58.160Z,0
2018-09-23T02:32:57.902Z,0
2018-09-23T02:33:57.590Z,0
2018-09-23T02:34:57.319Z,0
2018-09-23T02:35:57.572Z,0
2018-09-23T02:36:57.555Z,0
2018-09-23T02:37:57.820Z,0
2018-09-23T02:38:58.061Z,0
2018-09-23T02:39:57.525Z,0
2018-09-23T02:40:57.752Z,0
2018-09-23T02:41:57.481Z,0
2018-09-23T02:42:57.732Z,0
2018-09-23T02:43:57.715Z,0
2018-09-23T02:44:57.158Z,0
2018-09-23T02:45:57.415Z,0
2018-09-23T02:46:57.672Z,0
2018-09-23T02:47:57.646Z,0
2018-09-23T02:48:57.359Z,0
2018-09-23T02:49:57.091Z,0
2018-09-23T02:50:57.598Z,0
2018-09-23T02:51:57.788Z,0
2018-09-23T02:52:57.302Z,0
2018-09-23T02:53:57.282Z,0
2018-09-23T02:54:57.014Z,0
2018-09-23T02:55:57.529Z,0
2018-09-23T02:56:57.772Z,0
2018-09-23T02:57:56.705Z,0
2018-09-23T02:58:57.224Z,0
2018-09-23T02:59:57.194Z,0
2018-09-23T03:00:57.459Z,0
2018-09-23T03:01:56.909Z,0
2018-09-23T03:02:57.683Z,0
2018-09-23T03:03:57.408Z,0
2018-09-23T03:04:57.664Z,0
2018-09-23T03:05:56.852Z,0
2018-09-23T03:06:57.356Z,0
2018-09-23T03:07:57.355Z,0
2018-09-23T03:08:57.063Z,0
2018-09-23T03:09:57.053Z,0
2018-09-23T03:10:57.581Z,0
2018-09-23T03:11:56.757Z,0
2018-09-23T03:12:57.002Z,0
2018-09-23T03:13:56.986Z,0
2018-09-23T03:14:57.500Z,0
2018-09-23T03:15:57.217Z,0
2018-09-23T03:16:57.205Z,0
2018-09-23T03:17:56.398Z,0
2018-09-23T03:18:56.653Z,0
2018-09-23T03:19:56.897Z,0
2018-09-23T03:20:57.148Z,0
2018-09-23T03:21:56.593Z,0
2018-09-23T03:22:57.119Z,0
2018-09-23T03:23:57.102Z,0
2018-09-23T03:24:56.564Z,0
2018-09-23T03:25:57.331Z,0
2018-09-23T03:26:56.526Z,0
2018-09-23T03:27:57.301Z,0
2018-09-23T03:28:57.021Z,0
2018-09-23T03:29:57.021Z,0
2018-09-23T03:30:57.278Z,0
2018-09-23T03:31:56.986Z,0
2018-09-23T03:32:56.979Z,0
2018-09-23T03:33:56.938Z,0
2018-09-23T03:34:56.414Z,0
2018-09-23T03:35:56.915Z,0
2018-09-23T03:36:56.648Z,0
2018-09-23T03:37:56.357Z,0
2018-09-23T03:38:56.875Z,0
2018-09-23T03:39:56.860Z,0
2018-09-23T03:40:56.856Z,0
2018-09-23T03:41:56.557Z,0
2018-09-23T03:42:56.828Z,0
2018-09-23T03:43:56.791Z,0
2018-09-23T03:44:56.263Z,0
2018-09-23T03:45:57.033Z,0
2018-09-23T03:46:56.490Z,0
2018-09-23T03:47:56.735Z,0
2018-09-23T03:48:56.715Z,0
2018-09-23T03:49:56.709Z,0
2018-09-23T03:50:56.425Z,0
2018-09-23T03:51:56.156Z,0
2018-09-23T03:52:56.672Z,0
2018-09-23T03:53:56.119Z,0
2018-09-23T03:54:56.637Z,0
2018-09-23T03:55:56.346Z,0
2018-09-23T03:56:56.329Z,0
2018-09-23T03:57:57.045Z,0
2018-09-23T03:58:56.305Z,0
2018-09-23T03:59:56.550Z,0
2018-09-23T04:00:56.536Z,0
2018-09-23T04:01:56.798Z,0
2018-09-23T04:02:56.238Z,0
2018-09-23T04:03:56.224Z,0
2018-09-23T04:04:56.204Z,0
2018-09-23T04:05:56.456Z,0
2018-09-23T04:06:56.449Z,0
2018-09-23T04:07:56.162Z,0
2018-09-23T04:08:56.433Z,0
2018-09-23T04:09:56.418Z,0
2018-09-23T04:10:55.866Z,0
2018-09-23T04:11:56.188Z,0
2018-09-23T04:12:56.622Z,0
2018-09-23T04:13:56.090Z,0
2018-09-23T04:14:55.798Z,0
2018-09-23T04:15:56.313Z,0
2018-09-23T04:16:55.767Z,0
2018-09-23T04:17:56.043Z,0
2018-09-23T04:18:55.731Z,0
2018-09-23T04:19:55.989Z,0
2018-09-23T04:20:55.963Z,0
2018-09-23T04:21:55.958Z,0
2018-09-23T04:22:56.197Z,0
2018-09-23T04:23:55.655Z,0
2018-09-23T04:24:55.918Z,0
2018-09-23T04:25:55.892Z,0
2018-09-23T04:26:55.936Z,0
2018-09-23T04:27:56.128Z,0
2018-09-23T04:28:56.372Z,0
2018-09-23T04:29:55.832Z,0
2018-09-23T04:30:55.810Z,0
2018-09-23T04:31:55.540Z,0
2018-09-23T04:32:56.045Z,0
2018-09-23T04:33:56.037Z,0
2018-09-23T04:34:56.313Z,0
2018-09-23T04:35:56.006Z,0
2018-09-23T04:36:56.256Z,0
2018-09-23T04:37:55.718Z,0
2018-09-23T04:38:55.699Z,0
2018-09-23T04:39:55.969Z,0
2018-09-23T04:40:55.929Z,0
2018-09-23T04:41:56.118Z,0
2018-09-23T04:42:55.627Z,0
2018-09-23T04:43:55.348Z,0
2018-09-23T04:44:56.119Z,0
2018-09-23T04:45:55.856Z,0
2018-09-23T04:46:55.306Z,0
2018-09-23T04:47:55.288Z,0
2018-09-23T04:48:55.794Z,0
2018-09-23T04:49:55.529Z,0
2018-09-23T04:50:55.771Z,0
2018-09-23T04:51:56.220Z,0
2018-09-23T04:52:55.938Z,0
2018-09-23T04:53:55.458Z,0
2018-09-23T04:54:54.915Z,0
2018-09-23T04:55:55.429Z,0
2018-09-23T04:56:54.895Z,0
2018-09-23T04:57:55.666Z,0
2018-09-23T04:58:55.125Z,0
2018-09-23T04:59:55.626Z,0
2018-09-23T05:00:55.356Z,0
2018-09-23T05:01:55.335Z,0
2018-09-23T05:02:54.802Z,0
2018-09-23T05:03:55.310Z,0
2018-09-23T05:04:55.301Z,0
2018-09-23T05:05:55.283Z,0
2018-09-23T05:06:55.544Z,0
2018-09-23T05:07:55.248Z,0
2018-09-23T05:08:54.711Z,0
2018-09-23T05:09:55.232Z,0
2018-09-23T05:10:54.936Z,0
2018-09-23T05:11:55.185Z,0
2018-09-23T05:12:55.458Z,0
2018-09-23T05:13:55.681Z,0
2018-09-23T05:14:55.406Z,0
2018-09-23T05:15:55.413Z,0
2018-09-23T05:16:55.105Z,0
2018-09-23T05:17:55.094Z,0
2018-09-23T05:18:54.813Z,0
2018-09-23T05:19:55.069Z,0
2018-09-23T05:20:55.265Z,0
2018-09-23T05:21:55.568Z,0
2018-09-23T05:22:55.560Z,0
2018-09-23T05:23:54.995Z,0
2018-09-23T05:24:54.985Z,0
2018-09-23T05:25:54.978Z,0
2018-09-23T05:26:54.963Z,0
2018-09-23T05:27:54.680Z,0
2018-09-23T05:28:54.666Z,0
2018-09-23T05:29:54.911Z,0
2018-09-23T05:30:55.251Z,0
2018-09-23T05:31:55.144Z,0
2018-09-23T05:32:55.139Z,0
2018-09-23T05:33:54.858Z,0
2018-09-23T05:34:54.829Z,0
2018-09-23T05:35:54.821Z,0
2018-09-23T05:36:55.069Z,0
2018-09-23T05:37:55.059Z,0
2018-09-23T05:38:55.035Z,0
2018-09-23T05:39:54.757Z,0
2018-09-23T05:40:55.282Z,0
2018-09-23T05:41:54.465Z,5
2018-09-23T05:42:54.715Z,5
2018-09-23T05:43:55.286Z,5
2018-09-23T05:44:54.951Z,5
2018-09-23T05:45:54.928Z,5
2018-09-23T05:46:54.919Z,5
2018-09-23T05:47:54.923Z,5
2018-09-23T05:48:54.639Z,5
2018-09-23T05:49:54.622Z,5
2018-09-23T05:50:54.863Z,5
2018-09-23T05:51:54.580Z,5
2018-09-23T05:52:54.566Z,5
2018-09-23T05:53:54.552Z,5
2018-09-23T05:54:54.538Z,5
2018-09-23T05:55:55.063Z,5
2018-09-23T05:56:54.499Z,5
2018-09-23T05:57:55.027Z,5
2018-09-23T05:58:54.481Z,5
2018-09-23T05:59:54.450Z,5
2018-09-23T06:00:54.444Z,10
2018-09-23T06:01:54.704Z,10
2018-09-23T06:02:54.417Z,10
2018-09-23T06:03:54.155Z,10
2018-09-23T06:04:54.112Z,10
2018-09-23T06:05:54.373Z,10
2018-09-23T06:06:54.623Z,10
2018-09-23T06:07:54.896Z,10
2018-09-23T06:08:55.011Z,15
2018-09-23T06:09:54.566Z,15
2018-09-23T06:10:54.557Z,15
2018-09-23T06:11:54.018Z,15
2018-09-23T06:12:55.216Z,15
2018-09-23T06:13:53.980Z,15
2018-09-23T06:14:54.283Z,15
2018-09-23T06:15:54.492Z,15
2018-09-23T06:16:54.196Z,10
2018-09-23T06:17:54.181Z,10
2018-09-23T06:18:54.161Z,10
2018-09-23T06:19:54.411Z,10
2018-09-23T06:20:54.149Z,10
2018-09-23T06:21:54.130Z,15
2018-09-23T06:22:54.635Z,15
2018-09-23T06:23:54.100Z,15
2018-09-23T06:24:54.375Z,15
2018-09-23T06:25:54.073Z,15
2018-09-23T06:26:54.054Z,15
2018-09-23T06:27:53.766Z,15
2018-09-23T06:28:54.021Z,15
2018-09-23T06:29:54.268Z,20
2018-09-23T06:30:54.010Z,20
2018-09-23T06:31:54.525Z,20
2018-09-23T06:32:54.213Z,20
2018-09-23T06:33:53.944Z,20
2018-09-23T06:34:54.200Z,20
2018-09-23T06:35:54.198Z,20
2018-09-23T06:36:53.952Z,20
2018-09-23T06:37:54.379Z,25
2018-09-23T06:38:54.138Z,25
2018-09-23T06:39:53.857Z,25
2018-09-23T06:40:53.844Z,30
2018-09-23T06:41:54.174Z,30
2018-09-23T06:42:54.066Z,30
2018-09-23T06:43:53.785Z,30
2018-09-23T06:44:53.516Z,35
2018-09-23T06:45:54.663Z,35
2018-09-23T06:46:54.267Z,35
2018-09-23T06:47:53.466Z,35
2018-09-23T06:48:54.003Z,35
2018-09-23T06:49:53.432Z,35
2018-09-23T06:50:53.975Z,30
2018-09-23T06:51:54.408Z,30
2018-09-23T06:52:53.666Z,35
2018-09-23T06:53:53.589Z,35
2018-09-23T06:54:53.367Z,35
2018-09-23T06:55:53.883Z,35
2018-09-23T06:56:53.410Z,35
2018-09-23T06:57:53.844Z,30
2018-09-23T06:58:54.151Z,30
2018-09-23T06:59:53.291Z,35
2018-09-23T07:00:53.537Z,35
2018-09-23T07:01:54.046Z,35
2018-09-23T07:02:53.771Z,35
2018-09-23T07:03:53.760Z,35
2018-09-23T07:04:54.446Z,30
2018-09-23T07:05:53.731Z,30
2018-09-23T07:06:54.007Z,30
2018-09-23T07:07:53.702Z,30
2018-09-23T07:08:53.417Z,30
2018-09-23T07:09:53.137Z,30
2018-09-23T07:10:53.127Z,30
2018-09-23T07:11:53.670Z,35
2018-09-23T07:12:53.897Z,40
2018-09-23T07:13:53.088Z,45
2018-09-23T07:14:53.591Z,50
2018-09-23T07:15:53.043Z,55
2018-09-23T07:16:53.296Z,55
2018-09-23T07:17:53.282Z,55
2018-09-23T07:18:53.810Z,50
2018-09-23T07:19:53.534Z,50
2018-09-23T07:20:53.500Z,50
2018-09-23T07:21:53.232Z,50
2018-09-23T07:22:53.744Z,50
2018-09-23T07:23:53.907Z,50
2018-09-23T07:24:53.448Z,50
2018-09-23T07:25:53.426Z,50
2018-09-23T07:26:53.432Z,50
2018-09-23T07:27:53.158Z,50
2018-09-23T07:28:52.853Z,55
2018-09-23T07:29:53.471Z,60
2018-09-23T07:30:53.371Z,65
2018-09-23T07:31:53.073Z,75
2018-09-23T07:32:53.330Z,75
2018-09-23T07:33:52.523Z,70
2018-09-23T07:34:53.299Z,80
2018-09-23T07:35:53.015Z,80
2018-09-23T07:36:53.297Z,85
2018-09-23T07:37:52.996Z,80
2018-09-23T07:38:52.708Z,80
2018-09-23T07:39:52.784Z,70
2018-09-23T07:40:52.674Z,60
2018-09-23T07:41:53.216Z,50
2018-09-23T07:42:52.919Z,50
2018-09-23T07:43:53.172Z,50
2018-09-23T07:44:53.152Z,55
2018-09-23T07:45:53.134Z,70
2018-09-23T07:46:53.395Z,75
2018-09-23T07:47:52.899Z,70
2018-09-23T07:48:52.842Z,75
2018-09-23T07:49:53.346Z,85
2018-09-23T07:50:52.790Z,85
2018-09-23T07:51:53.045Z,90
2018-09-23T07:52:53.070Z,95
2018-09-23T07:53:53.079Z,95
2018-09-23T07:54:52.737Z,90
2018-09-23T07:55:52.987Z,95
2018-09-23T07:56:52.456Z,110
2018-09-23T07:57:52.435Z,135
2018-09-23T07:58:53.214Z,150
2018-09-23T07:59:52.928Z,140
2018-09-23T08:00:52.919Z,125
2018-09-23T08:01:52.928Z,115
2018-09-23T08:02:52.636Z,115
2018-09-23T08:03:53.148Z,115
2018-09-23T08:04:52.334Z,115
2018-09-23T08:05:52.581Z,100
2018-09-23T08:06:52.582Z,90
2018-09-23T08:07:53.083Z,90
2018-09-23T08:08:52.536Z,95
2018-09-23T08:09:52.798Z,95
2018-09-23T08:10:52.521Z,95
2018-09-23T08:11:53.087Z,95
2018-09-23T08:12:53.027Z,95
2018-09-23T08:13:54.540Z,95
2018-09-23T08:14:56.551Z,95
2018-09-23T08:15:52.441Z,105
2018-09-23T08:16:52.706Z,115
2018-09-23T08:17:52.416Z,120
2018-09-23T08:18:52.141Z,130
2018-09-23T08:19:53.887Z,135
2018-09-23T08:20:52.303Z,120
2018-09-23T08:21:52.102Z,110
2018-09-23T08:22:52.390Z,115
2018-09-23T08:23:52.607Z,95
2018-09-23T08:24:52.315Z,70
2018-09-23T08:25:52.602Z,45
2018-09-23T08:26:52.571Z,45
2018-09-23T08:27:52.282Z,50
2018-09-23T08:28:52.830Z,50
2018-09-23T08:29:52.516Z,45
2018-09-23T08:30:52.771Z,50
2018-09-23T08:31:52.224Z,50
2018-09-23T08:32:52.545Z,45
2018-09-23T08:33:52.465Z,60
2018-09-23T08:34:52.644Z,75
2018-09-23T08:35:52.421Z,70
2018-09-23T08:36:51.887Z,60
2018-09-23T08:37:51.878Z,60
2018-09-23T08:38:52.654Z,65
2018-09-23T08:39:52.641Z,55
2018-09-23T08:40:51.848Z,55
2018-09-23T08:41:51.819Z,55
2018-09-23T08:42:52.656Z,50
2018-09-23T08:43:52.599Z,50
2018-09-23T08:44:52.582Z,50
2018-09-23T08:45:51.765Z,60
2018-09-23T08:46:52.285Z,65
2018-09-23T08:47:52.741Z,60
2018-09-23T08:48:52.249Z,65
2018-09-23T08:49:51.973Z,65
2018-09-23T08:50:51.954Z,60
2018-09-23T08:51:52.639Z,60
2018-09-23T08:52:51.937Z,60
2018-09-23T08:53:51.662Z,55
2018-09-23T08:54:51.911Z,60
2018-09-23T08:55:52.152Z,55
2018-09-23T08:56:52.158Z,50
2018-09-23T08:57:52.524Z,50
2018-09-23T08:58:52.130Z,55
2018-09-23T08:59:52.116Z,45
2018-09-23T09:00:51.562Z,45
2018-09-23T09:01:51.547Z,45
2018-09-23T09:02:51.795Z,45
2018-09-23T09:03:51.648Z,45
2018-09-23T09:04:51.762Z,50
2018-09-23T09:05:52.018Z,50
2018-09-23T09:06:51.465Z,55
2018-09-23T09:07:51.723Z,55
2018-09-23T09:08:51.704Z,55
2018-09-23T09:09:51.698Z,60
2018-09-23T09:10:51.407Z,60
2018-09-23T09:11:52.428Z,65
2018-09-23T09:12:51.664Z,65
2018-09-23T09:13:51.639Z,75
2018-09-23T09:14:52.155Z,75
2018-09-23T09:15:51.612Z,75
2018-09-23T09:16:51.855Z,80
2018-09-23T09:17:51.317Z,85
2018-09-23T09:18:53.107Z,70
2018-09-23T09:19:51.559Z,70
2018-09-23T09:20:51.811Z,55
2018-09-23T09:21:51.521Z,60
2018-09-23T09:22:51.513Z,65
2018-09-23T09:23:51.757Z,70
2018-09-23T09:24:51.482Z,60
2018-09-23T09:25:52.010Z,60
2018-09-23T09:26:51.610Z,75
2018-09-23T09:27:51.437Z,95
2018-09-23T09:28:51.175Z,100
2018-09-23T09:29:51.954Z,110
2018-09-23T09:30:51.936Z,110
2018-09-23T09:31:51.921Z,110
2018-09-23T09:32:51.371Z,100
2018-09-23T09:33:51.087Z,110
2018-09-23T09:34:51.346Z,110
2018-09-23T09:35:50.813Z,120
2018-09-23T09:36:51.576Z,110
2018-09-23T09:37:51.302Z,105
2018-09-23T09:38:51.287Z,90
2018-09-23T09:39:51.278Z,85
2018-09-23T09:40:51.531Z,85
2018-09-23T09:41:51.514Z,100
2018-09-23T09:42:51.239Z,105
2018-09-23T09:43:51.225Z,105
2018-09-23T09:44:51.203Z,110
2018-09-23T09:45:51.463Z,90
2018-09-23T09:46:51.470Z,75
2018-09-23T09:47:51.451Z,65
2018-09-23T09:48:51.155Z,75
2018-09-23T09:49:50.888Z,85
2018-09-23T09:50:51.400Z,90
2018-09-23T09:51:51.113Z,85
2018-09-23T09:52:50.843Z,70
2018-09-23T09:53:51.098Z,65
2018-09-23T09:54:51.071Z,50
2018-09-23T09:55:50.529Z,45
2018-09-23T09:56:51.042Z,50
2018-09-23T09:57:51.057Z,55
2018-09-23T09:58:51.021Z,65
2018-09-23T09:59:51.015Z,75
2018-09-23T10:00:51.511Z,70
2018-09-23T10:01:50.965Z,70
2018-09-23T10:02:51.261Z,70
2018-09-23T10:03:51.531Z,60
2018-09-23T10:04:50.972Z,60
2018-09-23T10:05:50.945Z,75
2018-09-23T10:06:50.645Z,110
2018-09-23T10:07:50.631Z,105
2018-09-23T10:08:51.152Z,105
2018-09-23T10:09:50.860Z,90
2018-09-23T10:10:51.159Z,90
2018-09-23T10:11:50.833Z,90
2018-09-23T10:12:51.361Z,65
2018-09-23T10:13:50.807Z,55
2018-09-23T10:14:51.468Z,50
2018-09-23T10:15:51.060Z,55
2018-09-23T10:16:50.769Z,60
2018-09-23T10:17:51.026Z,65
2018-09-23T10:18:50.997Z,50
2018-09-23T10:19:50.828Z,55
2018-09-23T10:20:50.978Z,60
2018-09-23T10:21:50.436Z,40
2018-09-23T10:22:50.759Z,45
2018-09-23T10:23:51.379Z,35
2018-09-23T10:24:50.916Z,30
2018-09-23T10:25:50.372Z,35
2018-09-23T10:26:50.904Z,40
2018-09-23T10:27:50.873Z,35
2018-09-23T10:28:50.597Z,30
2018-09-23T10:29:51.080Z,30
2018-09-23T10:30:50.845Z,30
2018-09-23T10:31:50.432Z,20
2018-09-23T10:32:50.833Z,20
2018-09-23T10:33:50.579Z,20
2018-09-23T10:34:50.799Z,25
2018-09-23T10:35:50.789Z,25
2018-09-23T10:36:50.498Z,25
2018-09-23T10:37:50.749Z,25
2018-09-23T10:38:50.471Z,20
2018-09-23T10:39:50.714Z,25
2018-09-23T10:40:50.716Z,30
2018-09-23T10:41:50.972Z,30
2018-09-23T10:42:50.895Z,30
2018-09-23T10:43:50.673Z,30
2018-09-23T10:44:50.660Z,30
2018-09-23T10:45:50.950Z,35
2018-09-23T10:46:50.700Z,40
2018-09-23T10:47:50.333Z,45
2018-09-23T10:48:50.377Z,35
2018-09-23T10:49:50.078Z,40
2018-09-23T10:50:50.836Z,30
2018-09-23T10:51:50.539Z,30
2018-09-23T10:52:50.272Z,30
2018-09-23T10:53:50.515Z,25
2018-09-23T10:54:50.482Z,25
2018-09-23T10:55:50.340Z,30
2018-09-23T10:56:50.463Z,30
2018-09-23T10:57:50.201Z,25
2018-09-23T10:58:50.178Z,25
2018-09-23T10:59:50.189Z,30
2018-09-23T11:00:50.403Z,30
2018-09-23T11:01:50.475Z,30
2018-09-23T11:02:50.414Z,35
2018-09-23T11:03:50.837Z,35
2018-09-23T11:04:50.668Z,35
2018-09-23T11:05:50.349Z,35
2018-09-23T11:06:50.312Z,35
2018-09-23T11:07:50.317Z,45
2018-09-23T11:08:50.292Z,45
2018-09-23T11:09:50.314Z,45
2018-09-23T11:10:50.277Z,40
2018-09-23T11:11:49.981Z,45
2018-09-23T11:12:50.241Z,35
2018-09-23T11:13:50.221Z,35
2018-09-23T11:14:49.675Z,30
2018-09-23T11:15:50.188Z,35
2018-09-23T11:16:50.183Z,35
2018-09-23T11:17:49.631Z,45
2018-09-23T11:18:50.087Z,55
2018-09-23T11:19:49.866Z,50
2018-09-23T11:20:49.581Z,40
2018-09-23T11:21:50.099Z,40
2018-09-23T11:22:50.101Z,35
2018-09-23T11:23:49.820Z,35
2018-09-23T11:24:50.601Z,35
2018-09-23T11:25:50.060Z,30
2018-09-23T11:26:49.763Z,35
2018-09-23T11:27:50.298Z,30
2018-09-23T11:28:49.201Z,25
2018-09-23T11:29:50.292Z,30
2018-09-23T11:30:50.401Z,30
2018-09-23T11:31:50.440Z,35
2018-09-23T11:32:49.412Z,40
2018-09-23T11:33:49.661Z,40
2018-09-23T11:34:49.651Z,40
2018-09-23T11:35:49.394Z,40
2018-09-23T11:36:49.609Z,40
2018-09-23T11:37:50.338Z,45
2018-09-23T11:38:49.845Z,55
2018-09-23T11:39:49.892Z,45
2018-09-23T11:40:50.122Z,45
2018-09-23T11:41:49.813Z,55
2018-09-23T11:42:50.024Z,85
2018-09-23T11:43:50.037Z,80
2018-09-23T11:44:49.752Z,110
2018-09-23T11:45:49.765Z,110
2018-09-23T11:46:49.480Z,95
2018-09-23T11:47:49.457Z,95
2018-09-23T11:48:49.701Z,85
2018-09-23T11:49:49.700Z,75
2018-09-23T11:50:49.668Z,75
2018-09-23T11:51:49.385Z,80
2018-09-23T11:52:49.108Z,95
2018-09-23T11:53:49.893Z,80
2018-09-23T11:54:49.871Z,55
2018-09-23T11:55:49.595Z,40
2018-09-23T11:56:49.324Z,35
2018-09-23T11:57:49.583Z,30
2018-09-23T11:58:49.780Z,30
2018-09-23T11:59:49.533Z,30
2018-09-23T12:00:49.524Z,20
2018-09-23T12:01:50.192Z,25
2018-09-23T12:02:48.981Z,40
2018-09-23T12:03:49.771Z,55
2018-09-23T12:04:48.940Z,60
2018-09-23T12:05:49.190Z,55
2018-09-23T12:06:49.166Z,55
2018-09-23T12:07:49.163Z,60
2018-09-23T12:08:49.707Z,40
2018-09-23T12:09:49.412Z,35
2018-09-23T12:10:49.783Z,40
2018-09-23T12:11:49.363Z,35
2018-09-23T12:12:49.131Z,40
2018-09-23T12:13:48.789Z,45
2018-09-23T12:14:48.844Z,45
2018-09-23T12:15:49.719Z,45
2018-09-23T12:16:49.558Z,40
2018-09-23T12:17:48.735Z,30
2018-09-23T12:18:48.719Z,30
2018-09-23T12:19:48.713Z,35
2018-09-23T12:20:48.960Z,40
2018-09-23T12:21:48.940Z,40
2018-09-23T12:22:49.184Z,45
2018-09-23T12:23:48.911Z,50
2018-09-23T12:24:48.899Z,55
2018-09-23T12:25:50.465Z,60
2018-09-23T12:26:49.132Z,55
2018-09-23T12:27:49.380Z,50
2018-09-23T12:28:49.102Z,35
2018-09-23T12:29:49.050Z,25
2018-09-23T12:30:48.796Z,25
2018-09-23T12:31:49.325Z,30
2018-09-23T12:32:48.502Z,50
2018-09-23T12:33:48.494Z,50
2018-09-23T12:34:49.267Z,40
2018-09-23T12:35:48.993Z,35
2018-09-23T12:36:48.971Z,35
2018-09-23T12:37:48.440Z,35
2018-09-23T12:38:48.412Z,30
2018-09-23T12:39:49.084Z,30
2018-09-23T12:40:48.644Z,30
2018-09-23T12:41:48.909Z,35
2018-09-23T12:42:48.904Z,25
2018-09-23T12:43:48.880Z,30
2018-09-23T12:44:48.332Z,35
2018-09-23T12:45:48.862Z,30
2018-09-23T12:46:48.306Z,15
2018-09-23T12:47:48.828Z,10
2018-09-23T12:48:48.804Z,15
2018-09-23T12:49:48.780Z,20
2018-09-23T12:50:48.239Z,15
2018-09-23T12:51:49.026Z,25
2018-09-23T12:52:49.222Z,25
2018-09-23T12:53:48.475Z,20
2018-09-23T12:54:48.437Z,15
2018-09-23T12:55:48.418Z,15
2018-09-23T12:56:48.408Z,20
2018-09-23T12:57:48.414Z,25
2018-09-23T12:58:48.642Z,30
2018-09-23T12:59:48.392Z,35
2018-09-23T13:00:48.357Z,45
2018-09-23T13:01:48.321Z,60
2018-09-23T13:02:48.502Z,65
2018-09-23T13:03:48.880Z,70
2018-09-23T13:04:48.288Z,70
2018-09-23T13:05:48.544Z,75
2018-09-23T13:06:48.003Z,75
2018-09-23T13:07:48.234Z,90
2018-09-23T13:08:48.215Z,95
2018-09-23T13:09:48.736Z,90
2018-09-23T13:10:48.458Z,70
2018-09-23T13:11:48.457Z,65
2018-09-23T13:12:48.193Z,65
2018-09-23T13:13:48.143Z,70
2018-09-23T13:14:48.131Z,85
2018-09-23T13:15:48.156Z,90
2018-09-23T13:16:48.618Z,95
2018-09-23T13:17:47.627Z,95
2018-09-23T13:18:48.770Z,80
2018-09-23T13:19:48.825Z,65
2018-09-23T13:20:48.070Z,65
2018-09-23T13:21:48.587Z,65
2018-09-23T13:22:48.290Z,65
2018-09-23T13:23:48.536Z,70
2018-09-23T13:24:48.000Z,75
2018-09-23T13:25:47.978Z,75
2018-09-23T13:26:47.694Z,75
2018-09-23T13:27:48.469Z,75
2018-09-23T13:28:47.975Z,80
2018-09-23T13:29:48.168Z,80
2018-09-23T13:30:47.910Z,70
2018-09-23T13:31:48.420Z,55
2018-09-23T13:32:48.114Z,45
2018-09-23T13:33:47.829Z,35
2018-09-23T13:34:48.087Z,35
2018-09-23T13:35:48.274Z,35
2018-09-23T13:36:48.046Z,45
2018-09-23T13:37:47.253Z,50
2018-09-23T13:38:47.943Z,55
2018-09-23T13:39:48.019Z,55
2018-09-23T13:40:47.729Z,75
2018-09-23T13:41:47.485Z,80
2018-09-23T13:42:48.259Z,85
2018-09-23T13:43:47.946Z,70
2018-09-23T13:44:47.145Z,65
2018-09-23T13:45:47.720Z,60
2018-09-23T13:46:48.114Z,55
2018-09-23T13:47:47.885Z,55
2018-09-23T13:48:47.961Z,55
2018-09-23T13:49:47.591Z,50
2018-09-23T13:50:47.605Z,80
2018-09-23T13:51:47.826Z,70
2018-09-23T13:52:47.544Z,55
2018-09-23T13:53:47.801Z,50
2018-09-23T13:54:47.265Z,45
2018-09-23T13:55:47.772Z,55
2018-09-23T13:56:47.762Z,35
2018-09-23T13:57:48.007Z,30
2018-09-23T13:58:47.732Z,45
2018-09-23T13:59:47.454Z,35
2018-09-23T14:00:47.591Z,40
2018-09-23T14:01:47.393Z,30
2018-09-23T14:02:47.475Z,35
2018-09-23T14:03:47.695Z,40
2018-09-23T14:04:47.398Z,65
2018-09-23T14:05:47.730Z,70
2018-09-23T14:06:47.159Z,70
2018-09-23T14:07:47.555Z,80
2018-09-23T14:08:47.636Z,80
2018-09-23T14:09:47.853Z,55
2018-09-23T14:10:47.354Z,35
2018-09-23T14:11:47.866Z,45
2018-09-23T14:12:47.571Z,35
2018-09-23T14:13:47.324Z,25
2018-09-23T14:14:47.504Z,25
2018-09-23T14:15:47.549Z,45
2018-09-23T14:16:47.208Z,50
2018-09-23T14:17:47.722Z,20
2018-09-23T14:18:46.711Z,35
2018-09-23T14:19:47.141Z,45
2018-09-23T14:20:47.754Z,55
2018-09-23T14:21:47.414Z,40
2018-09-23T14:22:47.164Z,25
2018-09-23T14:23:47.634Z,25
2018-09-23T14:24:47.100Z,30
2018-09-23T14:25:47.057Z,55
2018-09-23T14:26:47.597Z,55